Time;durP1;ratioP1;P1;durP2;ratioP2;P2;SDS_P1;SDS_P2;PMS_P1;PMS_P2;Temp;Humidity;BMP_temperature;BMP_pressure;BME280_temperature;BME280_humidity;BME280_pressure;Samples;Min_cycle;Max_cycle;Signal;HPM_P1;HPM_P2
2023/07/26 00:01:50;;;;;;;6.00;1.60;;;;;;;11.59;86.09;100233.65;106178;1253;62009;-69
2023/07/26 00:04:17;;;;;;;4.30;1.60;;;;;;;11.53;86.47;100230.17;105864;1258;60439;-69
2023/07/26 00:06:44;;;;;;;3.70;1.70;;;;;;;11.48;86.79;100235.56;106079;1257;73128;-69
2023/07/26 00:09:11;;;;;;;6.20;1.60;;;;;;;11.43;86.92;100239.17;106219;1253;70851;-71
2023/07/26 00:11:37;;;;;;;4.80;1.70;;;;;;;11.39;87.57;100239.66;106207;1256;71428;-69
2023/07/26 00:14:05;;;;;;;5.00;1.60;;;;;;;11.36;87.63;100239.23;106028;1253;63673;-70
2023/07/26 00:16:32;;;;;;;4.30;1.60;;;;;;;11.33;87.58;100241.49;106114;1253;60429;-69
2023/07/26 00:19:00;;;;;;;4.60;1.60;;;;;;;11.29;87.60;100239.13;106097;1258;73794;-70
2023/07/26 00:21:27;;;;;;;7.60;1.50;;;;;;;11.27;87.83;100240.02;106260;1253;71150;-70
2023/07/26 00:23:54;;;;;;;4.80;2.10;;;;;;;11.22;87.94;100241.77;106149;1253;72576;-70
2023/07/26 00:26:21;;;;;;;5.50;1.60;;;;;;;11.17;88.08;100238.89;106131;1254;61651;-70
2023/07/26 00:28:48;;;;;;;4.40;1.70;;;;;;;11.12;88.38;100242.02;106048;1254;60369;-70
2023/07/26 00:31:14;;;;;;;5.40;1.90;;;;;;;11.07;88.47;100241.09;106284;1254;72667;-71
2023/07/26 00:33:41;;;;;;;3.50;1.60;;;;;;;11.00;88.97;100241.63;106239;1258;69977;-70
2023/07/26 00:36:08;;;;;;;5.00;1.70;;;;;;;10.96;89.28;100243.95;106074;1254;72716;-69
2023/07/26 00:38:35;;;;;;;5.10;2.00;;;;;;;10.93;89.97;100250.73;106107;1253;61965;-70
2023/07/26 00:41:02;;;;;;;4.10;1.70;;;;;;;10.90;90.45;100255.33;106155;1253;60424;-70
2023/07/26 00:43:29;;;;;;;4.30;1.90;;;;;;;10.87;90.53;100259.02;106366;1253;74086;-70
2023/07/26 00:45:55;;;;;;;7.20;1.90;;;;;;;10.86;90.75;100258.48;106105;1253;70472;-72
2023/07/26 00:48:23;;;;;;;5.20;1.80;;;;;;;10.83;90.93;100258.60;106211;1253;70466;-70
2023/07/26 00:50:50;;;;;;;4.40;1.90;;;;;;;10.82;91.04;100264.39;106048;1257;61662;-70
2023/07/26 00:53:17;;;;;;;5.00;1.70;;;;;;;10.79;91.27;100263.53;106077;1253;61449;-70
2023/07/26 00:55:45;;;;;;;4.20;1.60;;;;;;;10.77;91.58;100264.48;106002;1253;74467;-69
2023/07/26 00:58:12;;;;;;;4.80;1.90;;;;;;;10.74;91.89;100264.09;106127;1252;71137;-69
2023/07/26 01:00:42;;;;;;;3.80;1.80;;;;;;;10.73;92.18;100266.77;106131;1253;72636;-69
2023/07/26 01:03:09;;;;;;;3.70;1.90;;;;;;;10.71;92.40;100263.83;106027;1257;62224;-71
2023/07/26 01:05:41;;;;;;;4.90;1.90;;;;;;;10.70;92.84;100267.34;106227;1259;61150;-70
2023/07/26 01:09:02;;;;;;;3.80;1.80;;;;;;;10.69;92.96;100263.73;106076;1253;74749;-70
2023/07/26 01:11:40;;;;;;;5.40;1.60;;;;;;;10.68;93.07;100265.48;105602;1263;70462;-70
2023/07/26 01:14:20;;;;;;;5.00;1.80;;;;;;;10.67;93.11;100271.91;106132;1256;72662;-69
2023/07/26 01:16:48;;;;;;;3.90;1.70;;;;;;;10.66;93.31;100279.45;106048;1253;62082;-70
2023/07/26 01:19:15;;;;;;;4.30;1.80;;;;;;;10.65;93.52;100274.47;106152;1253;61251;-70
2023/07/26 01:21:41;;;;;;;4.30;1.80;;;;;;;10.64;93.55;100275.11;106171;1253;73522;-69
2023/07/26 01:24:08;;;;;;;6.80;1.90;;;;;;;10.63;93.59;100273.67;106183;1253;71288;-71
2023/07/26 01:26:35;;;;;;;5.20;1.90;;;;;;;10.61;93.38;100274.88;106200;1253;72385;-69
2023/07/26 01:29:02;;;;;;;5.60;2.00;;;;;;;10.59;93.63;100277.59;106058;1253;61731;-70
2023/07/26 01:31:30;;;;;;;5.70;2.00;;;;;;;10.57;94.08;100277.30;106062;1256;61409;-68
2023/07/26 01:34:00;;;;;;;5.30;1.90;;;;;;;10.55;93.88;100278.64;106236;1253;74656;-70
2023/07/26 01:36:29;;;;;;;4.80;2.10;;;;;;;10.53;93.94;100277.42;106323;1253;69856;-70
2023/07/26 01:38:58;;;;;;;5.90;2.00;;;;;;;10.50;94.12;100276.21;106041;1253;72896;-71
2023/07/26 01:41:26;;;;;;;2.90;1.80;;;;;;;10.48;94.28;100273.86;106075;1255;62117;-70
2023/07/26 01:43:53;;;;;;;4.70;1.90;;;;;;;10.44;94.29;100273.55;105848;1253;61730;-69
2023/07/26 01:46:20;;;;;;;7.40;2.20;;;;;;;10.41;94.52;100272.25;106353;1253;74677;-70
2023/07/26 01:48:47;;;;;;;5.80;2.10;;;;;;;10.37;94.85;100271.91;106181;1253;71147;-69
2023/07/26 01:51:14;;;;;;;5.10;1.80;;;;;;;10.34;95.18;100271.27;106070;1254;72770;-70
2023/07/26 01:53:41;;;;;;;5.20;2.20;;;;;;;10.31;95.40;100271.11;106088;1253;61378;-69
2023/07/26 01:56:08;;;;;;;7.90;2.20;;;;;;;10.30;95.71;100275.33;106242;1253;61243;-69
2023/07/26 01:58:35;;;;;;;4.80;1.80;;;;;;;10.29;95.76;100273.98;106194;1253;73529;-69
2023/07/26 02:01:03;;;;;;;4.50;2.10;;;;;;;10.29;96.09;100275.72;106044;1252;71216;-70
2023/07/26 02:03:30;;;;;;;5.20;2.10;;;;;;;10.29;96.12;100277.73;106025;1258;71584;-69
2023/07/26 02:05:57;;;;;;;6.00;2.20;;;;;;;10.27;96.27;100279.09;106041;1253;61328;-69
2023/07/26 02:08:24;;;;;;;4.40;1.80;;;;;;;10.26;96.23;100276.48;106280;1252;61774;-70
2023/07/26 02:10:50;;;;;;;4.80;2.10;;;;;;;10.24;96.46;100272.10;106150;1256;73958;-69
2023/07/26 02:13:17;;;;;;;5.10;2.10;;;;;;;10.23;96.50;100272.91;106194;1259;70411;-69
2023/07/26 02:15:45;;;;;;;4.20;2.10;;;;;;;10.21;96.55;100272.56;106175;1254;72652;-69
2023/07/26 02:18:13;;;;;;;7.10;2.10;;;;;;;10.19;96.69;100274.27;106160;1259;62069;-70
2023/07/26 02:20:39;;;;;;;3.20;2.10;;;;;;;10.17;96.74;100276.59;106179;1256;61240;-69
2023/07/26 02:23:06;;;;;;;5.30;2.10;;;;;;;10.15;96.97;100277.02;105853;1258;73771;-69
2023/07/26 02:25:33;;;;;;;5.20;2.10;;;;;;;10.12;97.12;100277.54;106153;1253;70006;-69
2023/07/26 02:28:00;;;;;;;3.70;2.10;;;;;;;10.11;97.01;100277.88;106124;1253;72639;-69
2023/07/26 02:30:27;;;;;;;6.80;2.20;;;;;;;10.09;96.96;100274.23;106325;1256;63648;-70
2023/07/26 02:32:54;;;;;;;4.20;2.30;;;;;;;10.07;97.07;100274.32;106142;1257;61253;-70
2023/07/26 02:35:20;;;;;;;6.60;2.10;;;;;;;10.05;97.15;100277.70;106150;1253;76373;-69
2023/07/26 02:37:47;;;;;;;5.40;2.40;;;;;;;10.03;97.30;100275.13;106125;1254;70529;-69
2023/07/26 02:40:14;;;;;;;6.40;2.40;;;;;;;10.01;97.35;100278.16;106174;1253;71489;-70
2023/07/26 02:42:41;;;;;;;4.30;2.10;;;;;;;9.99;97.68;100275.39;106145;1259;61353;-69
2023/07/26 02:45:08;;;;;;;5.60;2.20;;;;;;;9.96;97.92;100276.75;106093;1259;61207;-69
2023/07/26 02:47:35;;;;;;;4.80;2.10;;;;;;;9.95;98.13;100278.15;106161;1253;74635;-69
2023/07/26 02:50:04;;;;;;;6.00;2.20;;;;;;;9.94;98.09;100281.96;106043;1258;71196;-70
2023/07/26 02:52:31;;;;;;;5.10;2.30;;;;;;;9.93;98.15;100283.86;106287;1253;71460;-70
2023/07/26 02:54:59;;;;;;;4.70;2.10;;;;;;;9.93;98.47;100287.94;105739;1253;61660;-70
2023/07/26 02:57:25;;;;;;;5.00;2.10;;;;;;;9.93;98.74;100285.98;106160;1253;61654;-69
2023/07/26 02:59:52;;;;;;;7.00;2.10;;;;;;;9.93;98.86;100288.44;106159;1259;74734;-69
2023/07/26 03:02:19;;;;;;;5.90;2.10;;;;;;;9.95;99.16;100291.27;106260;1253;69934;-70
2023/07/26 03:04:46;;;;;;;7.10;2.40;;;;;;;9.96;99.42;100292.31;105831;1258;71453;-69
2023/07/26 03:07:13;;;;;;;7.40;2.10;;;;;;;10.00;99.65;100295.78;105982;1253;61936;-70
2023/07/26 03:09:40;;;;;;;4.00;2.00;;;;;;;10.03;99.96;100295.92;106179;1253;61266;-69
2023/07/26 03:12:07;;;;;;;7.40;2.40;;;;;;;10.07;100.00;100295.98;106175;1253;73712;-70
2023/07/26 03:14:36;;;;;;;4.20;2.00;;;;;;;10.12;100.00;100297.89;106197;1257;70681;-69
2023/07/26 03:17:03;;;;;;;4.80;1.90;;;;;;;10.17;100.00;100298.63;106156;1253;71097;-74
2023/07/26 03:19:47;;;;;;;5.70;2.10;;;;;;;10.24;100.00;100299.88;106216;1256;61273;-69
2023/07/26 03:22:14;;;;;;;6.10;2.10;;;;;;;10.29;100.00;100301.17;106506;1256;61893;-69
2023/07/26 03:24:40;;;;;;;3.10;2.00;;;;;;;10.35;100.00;100306.81;106178;1253;73500;-68
2023/07/26 03:27:08;;;;;;;5.00;1.70;;;;;;;10.42;100.00;100305.15;106048;1253;69903;-70
2023/07/26 03:29:35;;;;;;;5.00;1.80;;;;;;;10.50;100.00;100307.16;106043;1253;72658;-68
2023/07/26 03:32:02;;;;;;;4.10;1.80;;;;;;;10.57;100.00;100305.46;106199;1259;61296;-70
2023/07/26 03:34:29;;;;;;;7.40;2.00;;;;;;;10.64;100.00;100301.10;106213;1253;61356;-69
2023/07/26 03:36:56;;;;;;;4.80;2.00;;;;;;;10.70;100.00;100299.50;105837;1259;74677;-71
2023/07/26 03:39:23;;;;;;;5.90;2.20;;;;;;;10.75;99.91;100303.46;106162;1257;71480;-69
2023/07/26 03:41:50;;;;;;;4.00;2.00;;;;;;;10.81;99.65;100303.84;105995;1253;72433;-70
2023/07/26 03:44:16;;;;;;;4.10;1.70;;;;;;;10.87;99.40;100306.94;106305;1253;61709;-69
2023/07/26 03:46:43;;;;;;;6.30;1.70;;;;;;;10.93;99.09;100305.70;106169;1253;61779;-71
2023/07/26 03:49:10;;;;;;;7.30;2.20;;;;;;;10.99;98.78;100307.23;106192;1257;75591;-70
2023/07/26 03:51:37;;;;;;;4.40;1.90;;;;;;;11.05;98.38;100303.05;106104;1257;69712;-69
2023/07/26 03:54:04;;;;;;;4.00;1.80;;;;;;;11.10;98.00;100305.07;106131;1254;70805;-71
2023/07/26 03:56:31;;;;;;;6.00;2.00;;;;;;;11.14;97.56;100303.67;106179;1253;61365;-71
2023/07/26 03:58:58;;;;;;;4.30;2.10;;;;;;;11.18;97.13;100308.83;106301;1253;61548;-70
2023/07/26 04:01:25;;;;;;;5.20;1.90;;;;;;;11.22;96.81;100311.92;106079;1256;73923;-69
2023/07/26 04:03:52;;;;;;;5.20;1.90;;;;;;;11.26;96.54;100311.65;106168;1257;71223;-70
2023/07/26 04:06:19;;;;;;;3.70;1.90;;;;;;;11.29;96.26;100317.03;106305;1253;72515;-70
2023/07/26 04:08:46;;;;;;;4.00;1.90;;;;;;;11.33;95.87;100317.35;106068;1253;62177;-70
2023/07/26 04:11:13;;;;;;;4.70;1.70;;;;;;;11.34;95.59;100317.33;106111;1254;61267;-69
2023/07/26 04:13:40;;;;;;;5.10;1.90;;;;;;;11.36;95.45;100316.58;106109;1255;72702;-69
2023/07/26 04:16:18;;;;;;;4.80;2.30;;;;;;;11.38;95.20;100322.67;106154;1254;69754;-70
2023/07/26 04:18:45;;;;;;;4.90;1.70;;;;;;;11.39;95.14;100319.50;106075;1257;72424;-69
2023/07/26 04:21:17;;;;;;;5.40;2.00;;;;;;;11.41;94.99;100322.83;106013;1255;61991;-69
2023/07/26 04:23:46;;;;;;;7.00;2.10;;;;;;;11.44;94.81;100319.34;106023;1257;61191;-69
2023/07/26 04:26:13;;;;;;;4.90;2.00;;;;;;;11.47;94.76;100325.09;106355;1253;76537;-70
2023/07/26 04:28:40;;;;;;;6.80;2.20;;;;;;;11.50;94.63;100324.39;105835;1257;70133;-69
2023/07/26 04:31:07;;;;;;;4.90;2.00;;;;;;;11.54;94.58;100325.80;105838;1258;72550;-70
2023/07/26 04:33:34;;;;;;;3.90;1.80;;;;;;;11.58;94.33;100327.52;106072;1258;61235;-69
2023/07/26 04:36:01;;;;;;;6.20;2.10;;;;;;;11.61;94.19;100329.23;106246;1256;61240;-70
2023/07/26 04:38:27;;;;;;;3.70;1.70;;;;;;;11.65;93.98;100330.33;106168;1256;73961;-69
2023/07/26 04:40:54;;;;;;;3.60;1.50;;;;;;;11.68;93.88;100333.21;106112;1254;71457;-69
2023/07/26 04:43:21;;;;;;;6.40;2.10;;;;;;;11.70;93.93;100333.92;106210;1254;72671;-68
2023/07/26 04:45:50;;;;;;;4.40;1.90;;;;;;;11.73;93.81;100334.29;105994;1259;61263;-71
2023/07/26 04:48:18;;;;;;;4.20;2.00;;;;;;;11.77;93.74;100336.08;106458;1257;61180;-72
2023/07/26 04:50:46;;;;;;;3.10;1.90;;;;;;;11.81;93.78;100338.02;106074;1256;74657;-68
2023/07/26 04:53:13;;;;;;;4.80;2.00;;;;;;;11.85;93.61;100338.14;106211;1259;69662;-69
2023/07/26 04:55:50;;;;;;;5.00;1.80;;;;;;;11.86;93.42;100339.48;106050;1254;71714;-68
2023/07/26 04:58:18;;;;;;;5.70;2.40;;;;;;;11.88;93.53;100341.73;106197;1259;61461;-67
2023/07/26 05:00:45;;;;;;;3.70;1.80;;;;;;;11.91;93.53;100343.86;106066;1257;61189;-67
2023/07/26 05:03:12;;;;;;;4.70;1.60;;;;;;;11.93;93.38;100347.67;106020;1259;73171;-68
2023/07/26 05:05:39;;;;;;;4.60;2.00;;;;;;;11.97;93.24;100347.30;105802;1260;71199;-67
2023/07/26 05:08:07;;;;;;;4.10;2.00;;;;;;;12.00;92.94;100348.72;106256;1257;71946;-68
2023/07/26 05:10:34;;;;;;;4.20;2.10;;;;;;;12.03;92.76;100351.81;106129;1255;61828;-68
2023/07/26 05:13:02;;;;;;;5.90;2.10;;;;;;;12.09;92.94;100356.93;106075;1254;61330;-68
2023/07/26 05:15:29;;;;;;;5.70;2.00;;;;;;;12.15;92.71;100363.11;106186;1253;73103;-69
2023/07/26 05:17:56;;;;;;;3.30;1.70;;;;;;;12.21;92.64;100362.02;106279;1253;71154;-70
2023/07/26 05:20:23;;;;;;;5.60;2.10;;;;;;;12.26;92.52;100357.25;106174;1257;72732;-69
2023/07/26 05:22:49;;;;;;;4.00;1.70;;;;;;;12.33;92.65;100354.19;106143;1255;61247;-68
2023/07/26 05:25:18;;;;;;;4.80;1.60;;;;;;;12.38;92.40;100357.91;106082;1255;61285;-69
2023/07/26 05:27:45;;;;;;;5.90;2.20;;;;;;;12.42;92.07;100358.29;106114;1257;74838;-70
2023/07/26 05:30:14;;;;;;;3.40;1.70;;;;;;;12.46;91.73;100360.98;106213;1253;69091;-69
2023/07/26 05:32:41;;;;;;;4.30;1.80;;;;;;;12.47;91.53;100365.25;106134;1255;70957;-70
2023/07/26 05:35:08;;;;;;;4.60;1.90;;;;;;;12.47;91.57;100367.70;106017;1254;61799;-70
2023/07/26 05:37:35;;;;;;;4.40;2.10;;;;;;;12.50;91.36;100370.75;106164;1255;61353;-69
2023/07/26 05:40:03;;;;;;;4.40;1.90;;;;;;;12.54;91.21;100371.52;106312;1260;74640;-69
2023/07/26 05:42:30;;;;;;;4.40;1.90;;;;;;;12.58;91.05;100370.84;105888;1258;71509;-69
2023/07/26 05:44:57;;;;;;;4.60;1.80;;;;;;;12.63;91.05;100370.66;105997;1257;71128;-70
2023/07/26 05:47:24;;;;;;;4.00;1.60;;;;;;;12.68;90.97;100371.17;106183;1254;63157;-69
2023/07/26 05:49:51;;;;;;;6.10;2.00;;;;;;;12.73;90.98;100369.61;106399;1257;61729;-70
2023/07/26 05:52:18;;;;;;;5.50;1.90;;;;;;;12.81;90.81;100376.90;106203;1255;72289;-69
2023/07/26 05:54:45;;;;;;;3.90;1.90;;;;;;;12.90;90.55;100379.28;106059;1258;69254;-69
2023/07/26 05:57:12;;;;;;;3.70;1.80;;;;;;;12.98;89.73;100379.71;106059;1263;72371;-69
2023/07/26 05:59:38;;;;;;;6.00;2.00;;;;;;;13.04;89.45;100380.98;106070;1254;61338;-69
2023/07/26 06:02:05;;;;;;;7.20;2.10;;;;;;;13.16;89.75;100381.48;106327;1258;61358;-69
2023/07/26 06:04:34;;;;;;;5.00;2.10;;;;;;;13.29;89.44;100384.77;106281;1254;74763;-68
2023/07/26 06:07:02;;;;;;;5.20;2.20;;;;;;;13.44;89.09;100385.61;106053;1257;70082;-69
2023/07/26 06:09:33;;;;;;;5.50;2.20;;;;;;;13.61;88.48;100384.33;106152;1257;72426;-69
2023/07/26 06:12:00;;;;;;;6.00;2.60;;;;;;;13.77;87.90;100386.77;106395;1256;61861;-70
2023/07/26 06:14:29;;;;;;;5.50;2.50;;;;;;;13.90;87.04;100384.52;106143;1254;61572;-69
2023/07/26 06:16:56;;;;;;;5.40;2.60;;;;;;;14.04;86.87;100390.27;106113;1257;74663;-72
2023/07/26 06:19:23;;;;;;;4.10;2.30;;;;;;;14.16;85.83;100386.08;106053;1257;69807;-69
2023/07/26 06:21:55;;;;;;;3.70;1.60;;;;;;;14.29;85.62;100387.38;106196;1256;73131;-69
2023/07/26 06:24:25;;;;;;;3.90;2.00;;;;;;;14.46;84.81;100389.08;106300;1257;61241;-70
2023/07/26 06:26:54;;;;;;;6.20;2.00;;;;;;;14.61;83.89;100378.34;106144;1257;61276;-70
2023/07/26 06:29:21;;;;;;;4.30;1.80;;;;;;;14.71;82.89;100382.13;106167;1257;73750;-70
2023/07/26 06:31:48;;;;;;;4.50;1.60;;;;;;;14.79;82.63;100383.95;106293;1256;71234;-69
2023/07/26 06:34:15;;;;;;;3.50;1.70;;;;;;;14.90;82.37;100386.08;106115;1254;72743;-70
2023/07/26 06:36:42;;;;;;;4.50;1.80;;;;;;;15.08;82.95;100388.92;106027;1257;62094;-69
2023/07/26 06:39:09;;;;;;;4.50;1.60;;;;;;;15.24;81.63;100390.92;106051;1259;61785;-70
2023/07/26 06:41:37;;;;;;;4.70;2.10;;;;;;;15.30;80.34;100393.94;106089;1257;73817;-70
2023/07/26 06:44:05;;;;;;;3.20;1.70;;;;;;;15.32;79.71;100394.82;106226;1255;68988;-71
2023/07/26 06:46:33;;;;;;;3.50;1.50;;;;;;;15.34;79.75;100391.77;106158;1257;71581;-69
2023/07/26 06:49:02;;;;;;;4.50;1.50;;;;;;;15.46;79.87;100393.23;106046;1258;61320;-69
2023/07/26 06:51:28;;;;;;;5.60;1.80;;;;;;;15.61;79.73;100396.89;106111;1254;61817;-69
2023/07/26 06:53:56;;;;;;;4.60;1.80;;;;;;;15.70;79.16;100393.09;106341;1257;73897;-71
2023/07/26 06:56:22;;;;;;;4.20;1.60;;;;;;;15.77;78.58;100390.31;106020;1256;69951;-69
2023/07/26 06:58:52;;;;;;;4.70;1.60;;;;;;;15.86;78.18;100391.28;106086;1256;72738;-69
2023/07/26 07:01:19;;;;;;;4.30;1.60;;;;;;;16.02;78.28;100394.15;106143;1257;62071;-70
2023/07/26 07:03:46;;;;;;;3.40;1.40;;;;;;;16.22;77.17;100392.55;106255;1256;61353;-70
2023/07/26 07:06:21;;;;;;;2.80;1.30;;;;;;;16.37;76.32;100392.41;106074;1260;74703;-69
2023/07/26 07:08:48;;;;;;;3.70;1.40;;;;;;;16.47;75.15;100396.27;106076;1257;70136;-69
2023/07/26 07:11:15;;;;;;;4.00;1.40;;;;;;;16.56;74.20;100397.78;106087;1257;72636;-70
2023/07/26 07:13:42;;;;;;;4.00;1.40;;;;;;;16.62;73.55;100398.02;106447;1257;61349;-70
2023/07/26 07:16:09;;;;;;;3.30;1.30;;;;;;;16.68;73.15;100397.13;106352;1254;61794;-69
2023/07/26 07:18:36;;;;;;;2.70;1.30;;;;;;;16.73;72.17;100401.70;106132;1257;73972;-70
2023/07/26 07:21:03;;;;;;;2.90;1.10;;;;;;;16.75;71.96;100398.48;106083;1254;70397;-70
2023/07/26 07:23:30;;;;;;;4.90;1.10;;;;;;;16.89;72.75;100394.70;106125;1253;72331;-69
2023/07/26 07:25:57;;;;;;;2.40;1.00;;;;;;;17.09;72.19;100399.32;106271;1256;61347;-69
2023/07/26 07:28:24;;;;;;;1.90;0.90;;;;;;;17.17;70.39;100399.89;106132;1254;61244;-69
2023/07/26 07:30:51;;;;;;;1.70;0.80;;;;;;;17.16;69.27;100401.89;106099;1256;73130;-69
2023/07/26 07:33:18;;;;;;;2.90;1.00;;;;;;;17.12;69.19;100399.24;106195;1257;71161;-70
2023/07/26 07:35:44;;;;;;;4.10;1.10;;;;;;;17.22;69.64;100399.58;106339;1254;71133;-68
2023/07/26 07:38:11;;;;;;;3.40;1.30;;;;;;;17.19;69.69;100404.11;106165;1254;61289;-69
2023/07/26 07:40:38;;;;;;;3.00;1.20;;;;;;;17.02;70.01;100405.63;106157;1254;61643;-68
2023/07/26 07:43:05;;;;;;;3.40;1.20;;;;;;;16.87;70.75;100400.66;106015;1253;75267;-69
2023/07/26 07:45:31;;;;;;;2.70;1.00;;;;;;;16.72;70.94;100410.89;106158;1254;69772;-69
2023/07/26 07:47:58;;;;;;;2.60;1.10;;;;;;;16.51;71.61;100407.80;106179;1253;74102;-69
2023/07/26 07:50:26;;;;;;;4.70;1.30;;;;;;;16.33;73.10;100405.35;106222;1253;61994;-70
2023/07/26 07:52:53;;;;;;;3.80;1.30;;;;;;;16.20;74.70;100405.58;106053;1254;61257;-69
2023/07/26 07:55:20;;;;;;;3.60;1.30;;;;;;;16.14;77.24;100406.04;105915;1258;245506;-69
2023/07/26 07:57:46;;;;;;;2.70;1.40;;;;;;;16.06;78.16;100409.02;106263;1254;69032;-70
2023/07/26 08:00:13;;;;;;;4.80;1.30;;;;;;;15.99;78.74;100407.73;106081;1259;72960;-68
2023/07/26 08:02:40;;;;;;;4.60;1.50;;;;;;;15.93;79.21;100413.27;106241;1256;61181;-70
2023/07/26 08:05:09;;;;;;;4.30;1.70;;;;;;;15.87;79.08;100409.91;106128;1257;61244;-69
2023/07/26 08:07:36;;;;;;;2.90;1.30;;;;;;;15.86;80.10;100409.59;106192;1256;72468;-71
2023/07/26 08:10:03;;;;;;;3.10;1.40;;;;;;;15.90;80.08;100411.57;106332;1257;69812;-69
2023/07/26 08:12:34;;;;;;;4.40;1.50;;;;;;;15.92;79.37;100408.84;106164;1257;71453;-69
2023/07/26 08:15:00;;;;;;;5.50;1.40;;;;;;;15.98;79.28;100404.61;106181;1252;61322;-70
2023/07/26 08:17:27;;;;;;;3.90;1.20;;;;;;;16.10;77.81;100400.14;106065;1257;61137;-70
2023/07/26 08:19:54;;;;;;;3.20;1.20;;;;;;;16.27;77.00;100401.15;106361;1256;72242;-68
2023/07/26 08:22:21;;;;;;;4.00;1.20;;;;;;;16.47;75.33;100400.10;106093;1257;70954;-69
2023/07/26 08:24:51;;;;;;;3.40;1.30;;;;;;;16.65;74.12;100403.83;106227;1257;72678;-69
2023/07/26 08:27:19;;;;;;;2.90;1.30;;;;;;;16.90;72.52;100406.30;106180;1257;61344;-70
2023/07/26 08:29:45;;;;;;;2.40;1.20;;;;;;;17.04;70.77;100398.19;106324;1254;61344;-69
2023/07/26 08:32:12;;;;;;;2.80;1.40;;;;;;;17.24;70.44;100397.83;106221;1254;75272;-69
2023/07/26 08:34:39;;;;;;;2.40;1.00;;;;;;;17.42;69.56;100393.16;106112;1257;70044;-71
2023/07/26 08:37:06;;;;;;;3.00;1.00;;;;;;;17.52;68.50;100393.69;106191;1254;71435;-69
2023/07/26 08:39:32;;;;;;;2.90;0.90;;;;;;;17.44;66.69;100405.76;106209;1255;61359;-71
2023/07/26 08:42:03;;;;;;;3.30;1.00;;;;;;;17.36;67.13;100398.90;106249;1255;61135;-71
2023/07/26 08:44:32;;;;;;;5.60;1.30;;;;;;;17.25;67.38;100401.18;106288;1257;73107;-69
2023/07/26 08:47:00;;;;;;;2.20;0.90;;;;;;;17.18;67.36;100398.83;106171;1257;70072;-69
2023/07/26 08:49:27;;;;;;;2.40;1.10;;;;;;;17.35;69.08;100396.45;106273;1254;72709;-69
2023/07/26 08:51:57;;;;;;;2.40;0.80;;;;;;;17.78;68.14;100395.66;106294;1257;61650;-67
2023/07/26 08:54:24;;;;;;;1.90;0.70;;;;;;;18.14;64.90;100399.83;106166;1253;61156;-70
2023/07/26 08:56:52;;;;;;;1.80;0.80;;;;;;;18.35;64.33;100391.98;106005;1257;74942;-68
2023/07/26 08:59:19;;;;;;;3.10;0.90;;;;;;;18.46;63.82;100398.89;106115;1257;71270;-69
2023/07/26 09:01:47;;;;;;;2.40;0.60;;;;;;;18.33;61.99;100401.19;106383;1257;72773;-68
2023/07/26 09:04:30;;;;;;;1.80;0.60;;;;;;;18.06;59.49;100412.13;106073;1254;61286;-68
2023/07/26 09:07:04;;;;;;;1.60;0.70;;;;;;;17.88;60.67;100409.70;106108;1253;61800;-69
2023/07/26 09:09:35;;;;;;;1.90;0.80;;;;;;;17.93;62.07;100409.70;106462;1253;74693;-69
2023/07/26 09:12:03;;;;;;;2.50;0.60;;;;;;;18.13;62.07;100408.44;106220;1254;69617;-69
2023/07/26 09:14:32;;;;;;;2.00;0.70;;;;;;;18.31;61.55;100406.02;106019;1254;72864;-69
2023/07/26 09:17:02;;;;;;;2.50;0.90;;;;;;;18.39;61.70;100408.73;106187;1254;61354;-68
2023/07/26 09:19:30;;;;;;;2.20;0.90;;;;;;;18.39;63.03;100408.29;106287;1257;61239;-69
2023/07/26 09:22:01;;;;;;;3.90;1.00;;;;;;;18.25;63.05;100409.41;106241;1257;73477;-68
2023/07/26 09:24:30;;;;;;;3.80;1.20;;;;;;;18.10;63.68;100408.27;106129;1253;69731;-68
2023/07/26 09:27:03;;;;;;;4.70;1.20;;;;;;;18.00;64.39;100400.30;106175;1254;71614;-68
2023/07/26 09:29:30;;;;;;;6.30;1.30;;;;;;;18.03;64.97;100397.23;106125;1253;61439;-67
2023/07/26 09:31:57;;;;;;;3.60;1.20;;;;;;;18.27;65.28;100392.17;106028;1257;61205;-68
2023/07/26 09:34:24;;;;;;;3.50;1.30;;;;;;;18.41;64.57;100396.05;106214;1253;74416;-68
2023/07/26 09:36:52;;;;;;;2.30;1.00;;;;;;;18.39;63.32;100392.50;106101;1254;69929;-68
2023/07/26 09:39:21;;;;;;;2.70;1.10;;;;;;;18.24;63.29;100386.11;106294;1254;71509;-66
2023/07/26 09:41:50;;;;;;;3.20;1.10;;;;;;;18.15;63.41;100387.50;106132;1255;62051;-68
2023/07/26 09:44:21;;;;;;;2.70;1.50;;;;;;;18.23;63.39;100386.13;106159;1254;61247;-67
2023/07/26 09:46:53;;;;;;;2.30;1.40;;;;;;;18.47;63.80;100380.82;106137;1254;73833;-69
2023/07/26 09:49:22;;;;;;;2.60;1.10;;;;;;;18.81;63.59;100374.41;106100;1255;69689;-68
2023/07/26 09:51:53;;;;;;;3.50;1.20;;;;;;;19.07;62.79;100372.36;106206;1255;71522;-68
2023/07/26 09:54:31;;;;;;;1.80;1.00;;;;;;;19.15;62.52;100368.21;106237;1254;61394;-68
2023/07/26 09:57:02;;;;;;;2.60;1.10;;;;;;;19.03;61.50;100377.34;107681;1253;60382;-68
2023/07/26 09:59:31;;;;;;;3.10;1.20;;;;;;;18.84;61.81;100379.64;106070;1257;74388;-69
2023/07/26 10:02:02;;;;;;;4.00;0.90;;;;;;;18.67;62.12;100369.70;106167;1254;69119;-68
2023/07/26 10:04:49;;;;;;;2.50;1.10;;;;;;;18.75;63.13;100367.66;106096;1254;71879;-69
2023/07/26 10:07:16;;;;;;;2.90;1.10;;;;;;;18.92;63.09;100370.35;106132;1254;61308;-69
2023/07/26 10:09:45;;;;;;;2.40;0.90;;;;;;;18.95;59.71;100367.41;106158;1255;61711;-71
2023/07/26 10:12:13;;;;;;;2.40;1.10;;;;;;;18.94;58.16;100362.66;106184;1254;74448;-70
2023/07/26 10:14:40;;;;;;;2.50;1.00;;;;;;;19.00;57.71;100357.99;106200;1253;70851;-70
2023/07/26 10:17:07;;;;;;;2.10;0.70;;;;;;;19.12;57.84;100361.05;106103;1253;72755;-69
2023/07/26 10:19:36;;;;;;;1.80;0.90;;;;;;;19.36;57.30;100359.36;106210;1254;61338;-69
2023/07/26 10:22:05;;;;;;;1.50;0.80;;;;;;;19.43;55.93;100350.06;106098;1257;61189;-69
2023/07/26 10:24:34;;;;;;;1.80;0.90;;;;;;;19.30;54.99;100360.27;106218;1257;74651;-69
2023/07/26 10:27:02;;;;;;;2.30;0.80;;;;;;;19.15;55.72;100368.42;106111;1254;70918;-69
2023/07/26 10:29:28;;;;;;;3.00;1.20;;;;;;;18.85;56.65;100368.48;106153;1253;72640;-69
2023/07/26 10:32:06;;;;;;;2.20;1.00;;;;;;;18.61;57.81;100370.36;106143;1257;61245;-69
2023/07/26 10:34:34;;;;;;;2.20;1.10;;;;;;;18.56;57.99;100365.70;106086;1253;61628;-68
2023/07/26 10:37:15;;;;;;;2.60;1.00;;;;;;;18.54;56.86;100364.65;106083;1254;74665;-68
2023/07/26 10:39:41;;;;;;;2.60;1.00;;;;;;;18.53;56.78;100358.81;106064;1254;68999;-69
2023/07/26 10:42:22;;;;;;;1.90;0.80;;;;;;;18.59;56.73;100360.34;106299;1253;72030;-69
2023/07/26 10:44:49;;;;;;;1.90;0.90;;;;;;;18.80;57.24;100349.72;106080;1257;61360;-68
2023/07/26 10:47:16;;;;;;;2.20;1.10;;;;;;;19.21;56.33;100350.09;106092;1257;61288;-69
2023/07/26 10:49:47;;;;;;;2.60;0.80;;;;;;;19.56;53.10;100351.05;106325;1252;77271;-70
2023/07/26 10:52:14;;;;;;;3.30;1.00;;;;;;;19.82;53.00;100340.96;105782;1254;71290;-69
2023/07/26 10:54:41;;;;;;;2.50;1.00;;;;;;;19.91;51.73;100348.20;105949;1253;71444;-70
2023/07/26 10:57:20;;;;;;;2.20;0.90;;;;;;;19.82;54.03;100360.01;106050;1254;62315;-68
2023/07/26 11:00:00;;;;;;;2.80;1.30;;;;;;;19.31;62.23;100362.75;106345;1254;61330;-69
2023/07/26 11:02:43;;;;;;;2.60;1.10;;;;;;;18.59;68.53;100359.16;106169;1257;74709;-70
2023/07/26 11:05:16;;;;;;;8.20;1.60;;;;;;;18.07;68.06;100362.77;106246;1253;69726;-69
2023/07/26 11:07:59;;;;;;;3.30;1.40;;;;;;;17.80;68.78;100364.05;106099;1255;72662;-68
2023/07/26 11:10:31;;;;;;;2.40;1.30;;;;;;;17.57;69.12;100366.79;106138;1254;61837;-69
2023/07/26 11:13:13;;;;;;;3.30;1.30;;;;;;;17.40;70.04;100370.67;106280;1254;61339;-69
2023/07/26 11:15:42;;;;;;;2.90;1.30;;;;;;;17.34;71.82;100376.86;106083;1254;73281;-68
2023/07/26 11:18:29;;;;;;;2.60;1.10;;;;;;;17.42;71.13;100373.58;106319;1253;71858;-70
2023/07/26 11:20:56;;;;;;;3.30;1.20;;;;;;;17.58;70.51;100373.96;106154;1257;72386;-70
2023/07/26 11:23:28;;;;;;;2.50;1.10;;;;;;;17.79;68.69;100381.41;106046;1257;62246;-69